<?xml version="1.0" encoding="UTF-8" standalone="no" ?>
<gpx xmlns="http://www.topografix.com/GPX/1/1" xmlns:xsi="http://www.w3.org/2001/XMLSchema-instance" xsi:schemaLocation="http://www.topografix.com/GPX/1/1 http://www.topografix.com/GPX/1/1/gpx.xsd" version="1.1" creator="VisuGPX - https://www.visugpx.com">
  <metadata>
    <name>Course a pied Chassieu</name>
  </metadata>
  <trk>
    <name><![CDATA[Zeopoxa Running]]></name>
    <trkseg>
      <trkpt lat="45.74662" lon="4.93896">
        <ele>242</ele>
        <time>2024-05-21T12:13:06</time>
      </trkpt>
      <trkpt lat="45.74662" lon="4.93896">
        <ele>241.9</ele>
        <time>2024-05-21T12:13:12</time>
      </trkpt>
      <trkpt lat="45.74663" lon="4.93896">
        <ele>241.8</ele>
        <time>2024-05-21T12:13:18</time>
      </trkpt>
      <trkpt lat="45.74663" lon="4.93895">
        <ele>241.8</ele>
        <time>2024-05-21T12:13:24</time>
      </trkpt>
      <trkpt lat="45.74661" lon="4.93886">
        <ele>241.7</ele>
        <time>2024-05-21T12:13:30</time>
      </trkpt>
      <trkpt lat="45.74663" lon="4.93862">
        <ele>241.6</ele>
        <time>2024-05-21T12:13:36</time>
      </trkpt>
      <trkpt lat="45.74666" lon="4.93842">
        <ele>241.6</ele>
        <time>2024-05-21T12:13:42</time>
      </trkpt>
      <trkpt lat="45.74667" lon="4.93821">
        <ele>241.5</ele>
        <time>2024-05-21T12:13:48</time>
      </trkpt>
      <trkpt lat="45.74669" lon="4.938">
        <ele>241.4</ele>
        <time>2024-05-21T12:13:54</time>
      </trkpt>
      <trkpt lat="45.74669" lon="4.93779">
        <ele>241.4</ele>
        <time>2024-05-21T12:14:00</time>
      </trkpt>
      <trkpt lat="45.7467" lon="4.9376">
        <ele>241.3</ele>
        <time>2024-05-21T12:14:06</time>
      </trkpt>
      <trkpt lat="45.74672" lon="4.9374">
        <ele>241.3</ele>
        <time>2024-05-21T12:14:12</time>
      </trkpt>
      <trkpt lat="45.74674" lon="4.9372">
        <ele>241.2</ele>
        <time>2024-05-21T12:14:18</time>
      </trkpt>
      <trkpt lat="45.74674" lon="4.93699">
        <ele>241.2</ele>
        <time>2024-05-21T12:14:24</time>
      </trkpt>
      <trkpt lat="45.74674" lon="4.9368">
        <ele>241.1</ele>
        <time>2024-05-21T12:14:30</time>
      </trkpt>
      <trkpt lat="45.7466" lon="4.93682">
        <ele>241.1</ele>
        <time>2024-05-21T12:14:36</time>
      </trkpt>
      <trkpt lat="45.74643" lon="4.93686">
        <ele>241</ele>
        <time>2024-05-21T12:14:42</time>
      </trkpt>
      <trkpt lat="45.7463" lon="4.9369">
        <ele>241</ele>
        <time>2024-05-21T12:14:48</time>
      </trkpt>
      <trkpt lat="45.74615" lon="4.93692">
        <ele>240.9</ele>
        <time>2024-05-21T12:14:54</time>
      </trkpt>
      <trkpt lat="45.74601" lon="4.93696">
        <ele>240.8</ele>
        <time>2024-05-21T12:15:00</time>
      </trkpt>
      <trkpt lat="45.74588" lon="4.93701">
        <ele>240.7</ele>
        <time>2024-05-21T12:15:06</time>
      </trkpt>
      <trkpt lat="45.74575" lon="4.93705">
        <ele>240.6</ele>
        <time>2024-05-21T12:15:12</time>
      </trkpt>
      <trkpt lat="45.74562" lon="4.9371">
        <ele>240.5</ele>
        <time>2024-05-21T12:15:18</time>
      </trkpt>
      <trkpt lat="45.74548" lon="4.93714">
        <ele>240.3</ele>
        <time>2024-05-21T12:15:24</time>
      </trkpt>
      <trkpt lat="45.74535" lon="4.93717">
        <ele>240.1</ele>
        <time>2024-05-21T12:15:30</time>
      </trkpt>
      <trkpt lat="45.74521" lon="4.93721">
        <ele>239.9</ele>
        <time>2024-05-21T12:15:36</time>
      </trkpt>
      <trkpt lat="45.74509" lon="4.93727">
        <ele>239.8</ele>
        <time>2024-05-21T12:15:42</time>
      </trkpt>
      <trkpt lat="45.74498" lon="4.93733">
        <ele>239.6</ele>
        <time>2024-05-21T12:15:48</time>
      </trkpt>
      <trkpt lat="45.74487" lon="4.93733">
        <ele>239.4</ele>
        <time>2024-05-21T12:15:54</time>
      </trkpt>
      <trkpt lat="45.74473" lon="4.93736">
        <ele>239.3</ele>
        <time>2024-05-21T12:16:00</time>
      </trkpt>
      <trkpt lat="45.74461" lon="4.93737">
        <ele>239.1</ele>
        <time>2024-05-21T12:16:06</time>
      </trkpt>
      <trkpt lat="45.74447" lon="4.93738">
        <ele>239</ele>
        <time>2024-05-21T12:16:12</time>
      </trkpt>
      <trkpt lat="45.74433" lon="4.9374">
        <ele>238.9</ele>
        <time>2024-05-21T12:16:18</time>
      </trkpt>
      <trkpt lat="45.7442" lon="4.93741">
        <ele>238.8</ele>
        <time>2024-05-21T12:16:24</time>
      </trkpt>
      <trkpt lat="45.74405" lon="4.93742">
        <ele>238.7</ele>
        <time>2024-05-21T12:16:30</time>
      </trkpt>
      <trkpt lat="45.74392" lon="4.93742">
        <ele>238.7</ele>
        <time>2024-05-21T12:16:36</time>
      </trkpt>
      <trkpt lat="45.74379" lon="4.93743">
        <ele>238.7</ele>
        <time>2024-05-21T12:16:42</time>
      </trkpt>
      <trkpt lat="45.74365" lon="4.93742">
        <ele>238.6</ele>
        <time>2024-05-21T12:16:48</time>
      </trkpt>
      <trkpt lat="45.74352" lon="4.93742">
        <ele>238.6</ele>
        <time>2024-05-21T12:16:54</time>
      </trkpt>
      <trkpt lat="45.74338" lon="4.93742">
        <ele>238.6</ele>
        <time>2024-05-21T12:17:00</time>
      </trkpt>
      <trkpt lat="45.74325" lon="4.93747">
        <ele>238.6</ele>
        <time>2024-05-21T12:17:06</time>
      </trkpt>
      <trkpt lat="45.74312" lon="4.93754">
        <ele>238.6</ele>
        <time>2024-05-21T12:17:12</time>
      </trkpt>
      <trkpt lat="45.74312" lon="4.93773">
        <ele>238.6</ele>
        <time>2024-05-21T12:17:18</time>
      </trkpt>
      <trkpt lat="45.74308" lon="4.93791">
        <ele>238.7</ele>
        <time>2024-05-21T12:17:24</time>
      </trkpt>
      <trkpt lat="45.74304" lon="4.93809">
        <ele>238.7</ele>
        <time>2024-05-21T12:17:30</time>
      </trkpt>
      <trkpt lat="45.74301" lon="4.93827">
        <ele>238.7</ele>
        <time>2024-05-21T12:17:36</time>
      </trkpt>
      <trkpt lat="45.74296" lon="4.93846">
        <ele>238.8</ele>
        <time>2024-05-21T12:17:42</time>
      </trkpt>
      <trkpt lat="45.74292" lon="4.93865">
        <ele>238.8</ele>
        <time>2024-05-21T12:17:48</time>
      </trkpt>
      <trkpt lat="45.74288" lon="4.93883">
        <ele>238.9</ele>
        <time>2024-05-21T12:17:54</time>
      </trkpt>
      <trkpt lat="45.74284" lon="4.93901">
        <ele>238.9</ele>
        <time>2024-05-21T12:18:00</time>
      </trkpt>
      <trkpt lat="45.74279" lon="4.93921">
        <ele>239</ele>
        <time>2024-05-21T12:18:06</time>
      </trkpt>
      <trkpt lat="45.74275" lon="4.93939">
        <ele>239.1</ele>
        <time>2024-05-21T12:18:12</time>
      </trkpt>
      <trkpt lat="45.74272" lon="4.93959">
        <ele>239.1</ele>
        <time>2024-05-21T12:18:18</time>
      </trkpt>
      <trkpt lat="45.74268" lon="4.93976">
        <ele>239.1</ele>
        <time>2024-05-21T12:18:24</time>
      </trkpt>
      <trkpt lat="45.74264" lon="4.93996">
        <ele>239.2</ele>
        <time>2024-05-21T12:18:30</time>
      </trkpt>
      <trkpt lat="45.7426" lon="4.94016">
        <ele>239.2</ele>
        <time>2024-05-21T12:18:36</time>
      </trkpt>
      <trkpt lat="45.74256" lon="4.94033">
        <ele>239.2</ele>
        <time>2024-05-21T12:18:42</time>
      </trkpt>
      <trkpt lat="45.74253" lon="4.94051">
        <ele>239.2</ele>
        <time>2024-05-21T12:18:48</time>
      </trkpt>
      <trkpt lat="45.74248" lon="4.94069">
        <ele>239.2</ele>
        <time>2024-05-21T12:18:54</time>
      </trkpt>
      <trkpt lat="45.74245" lon="4.94088">
        <ele>239.2</ele>
        <time>2024-05-21T12:19:00</time>
      </trkpt>
      <trkpt lat="45.74241" lon="4.94105">
        <ele>239.2</ele>
        <time>2024-05-21T12:19:06</time>
      </trkpt>
      <trkpt lat="45.74238" lon="4.94124">
        <ele>239.2</ele>
        <time>2024-05-21T12:19:12</time>
      </trkpt>
      <trkpt lat="45.74234" lon="4.94142">
        <ele>239.2</ele>
        <time>2024-05-21T12:19:18</time>
      </trkpt>
      <trkpt lat="45.74231" lon="4.94162">
        <ele>239.2</ele>
        <time>2024-05-21T12:19:24</time>
      </trkpt>
      <trkpt lat="45.74227" lon="4.9418">
        <ele>239.2</ele>
        <time>2024-05-21T12:19:30</time>
      </trkpt>
      <trkpt lat="45.74224" lon="4.94199">
        <ele>239.2</ele>
        <time>2024-05-21T12:19:36</time>
      </trkpt>
      <trkpt lat="45.74221" lon="4.94216">
        <ele>239.2</ele>
        <time>2024-05-21T12:19:42</time>
      </trkpt>
      <trkpt lat="45.74217" lon="4.94235">
        <ele>239.2</ele>
        <time>2024-05-21T12:19:48</time>
      </trkpt>
      <trkpt lat="45.74213" lon="4.94253">
        <ele>239.2</ele>
        <time>2024-05-21T12:19:54</time>
      </trkpt>
      <trkpt lat="45.74209" lon="4.94271">
        <ele>239.2</ele>
        <time>2024-05-21T12:20:00</time>
      </trkpt>
      <trkpt lat="45.74206" lon="4.94288">
        <ele>239.2</ele>
        <time>2024-05-21T12:20:06</time>
      </trkpt>
      <trkpt lat="45.74202" lon="4.94305">
        <ele>239.2</ele>
        <time>2024-05-21T12:20:12</time>
      </trkpt>
      <trkpt lat="45.74198" lon="4.94323">
        <ele>239.2</ele>
        <time>2024-05-21T12:20:18</time>
      </trkpt>
      <trkpt lat="45.74195" lon="4.94342">
        <ele>239.2</ele>
        <time>2024-05-21T12:20:24</time>
      </trkpt>
      <trkpt lat="45.74191" lon="4.94361">
        <ele>239.2</ele>
        <time>2024-05-21T12:20:30</time>
      </trkpt>
      <trkpt lat="45.74187" lon="4.94378">
        <ele>239.3</ele>
        <time>2024-05-21T12:20:36</time>
      </trkpt>
      <trkpt lat="45.74185" lon="4.94396">
        <ele>239.3</ele>
        <time>2024-05-21T12:20:42</time>
      </trkpt>
      <trkpt lat="45.74182" lon="4.94414">
        <ele>239.3</ele>
        <time>2024-05-21T12:20:48</time>
      </trkpt>
      <trkpt lat="45.74178" lon="4.94432">
        <ele>239.4</ele>
        <time>2024-05-21T12:20:54</time>
      </trkpt>
      <trkpt lat="45.74175" lon="4.94449">
        <ele>239.4</ele>
        <time>2024-05-21T12:21:00</time>
      </trkpt>
      <trkpt lat="45.7417" lon="4.94466">
        <ele>239.5</ele>
        <time>2024-05-21T12:21:06</time>
      </trkpt>
      <trkpt lat="45.74168" lon="4.94486">
        <ele>239.6</ele>
        <time>2024-05-21T12:21:12</time>
      </trkpt>
      <trkpt lat="45.74164" lon="4.94503">
        <ele>239.7</ele>
        <time>2024-05-21T12:21:18</time>
      </trkpt>
      <trkpt lat="45.74161" lon="4.94521">
        <ele>239.8</ele>
        <time>2024-05-21T12:21:24</time>
      </trkpt>
      <trkpt lat="45.74158" lon="4.94538">
        <ele>239.9</ele>
        <time>2024-05-21T12:21:30</time>
      </trkpt>
      <trkpt lat="45.74155" lon="4.94556">
        <ele>240</ele>
        <time>2024-05-21T12:21:36</time>
      </trkpt>
      <trkpt lat="45.74151" lon="4.94574">
        <ele>240.2</ele>
        <time>2024-05-21T12:21:42</time>
      </trkpt>
      <trkpt lat="45.74148" lon="4.94591">
        <ele>240.3</ele>
        <time>2024-05-21T12:21:48</time>
      </trkpt>
      <trkpt lat="45.74144" lon="4.9461">
        <ele>240.4</ele>
        <time>2024-05-21T12:21:54</time>
      </trkpt>
      <trkpt lat="45.74141" lon="4.94626">
        <ele>240.6</ele>
        <time>2024-05-21T12:22:00</time>
      </trkpt>
      <trkpt lat="45.74138" lon="4.94643">
        <ele>240.7</ele>
        <time>2024-05-21T12:22:06</time>
      </trkpt>
      <trkpt lat="45.74135" lon="4.94663">
        <ele>240.8</ele>
        <time>2024-05-21T12:22:12</time>
      </trkpt>
      <trkpt lat="45.74132" lon="4.94679">
        <ele>241</ele>
        <time>2024-05-21T12:22:18</time>
      </trkpt>
      <trkpt lat="45.74129" lon="4.94697">
        <ele>241.1</ele>
        <time>2024-05-21T12:22:24</time>
      </trkpt>
      <trkpt lat="45.74127" lon="4.94716">
        <ele>241.3</ele>
        <time>2024-05-21T12:22:30</time>
      </trkpt>
      <trkpt lat="45.74123" lon="4.94733">
        <ele>241.4</ele>
        <time>2024-05-21T12:22:36</time>
      </trkpt>
      <trkpt lat="45.7412" lon="4.94751">
        <ele>241.6</ele>
        <time>2024-05-21T12:22:42</time>
      </trkpt>
      <trkpt lat="45.74117" lon="4.94768">
        <ele>241.7</ele>
        <time>2024-05-21T12:22:48</time>
      </trkpt>
      <trkpt lat="45.74113" lon="4.94786">
        <ele>241.9</ele>
        <time>2024-05-21T12:22:54</time>
      </trkpt>
      <trkpt lat="45.74109" lon="4.94803">
        <ele>242</ele>
        <time>2024-05-21T12:23:00</time>
      </trkpt>
      <trkpt lat="45.74107" lon="4.94821">
        <ele>242.1</ele>
        <time>2024-05-21T12:23:06</time>
      </trkpt>
      <trkpt lat="45.74103" lon="4.94839">
        <ele>242.2</ele>
        <time>2024-05-21T12:23:12</time>
      </trkpt>
      <trkpt lat="45.74098" lon="4.94857">
        <ele>242.3</ele>
        <time>2024-05-21T12:23:18</time>
      </trkpt>
      <trkpt lat="45.74093" lon="4.94873">
        <ele>242.4</ele>
        <time>2024-05-21T12:23:24</time>
      </trkpt>
      <trkpt lat="45.74089" lon="4.94889">
        <ele>242.4</ele>
        <time>2024-05-21T12:23:30</time>
      </trkpt>
      <trkpt lat="45.74085" lon="4.94906">
        <ele>242.5</ele>
        <time>2024-05-21T12:23:36</time>
      </trkpt>
      <trkpt lat="45.7408" lon="4.94924">
        <ele>242.5</ele>
        <time>2024-05-21T12:23:42</time>
      </trkpt>
      <trkpt lat="45.74076" lon="4.94942">
        <ele>242.5</ele>
        <time>2024-05-21T12:23:48</time>
      </trkpt>
      <trkpt lat="45.74072" lon="4.94959">
        <ele>242.5</ele>
        <time>2024-05-21T12:23:54</time>
      </trkpt>
      <trkpt lat="45.74063" lon="4.94966">
        <ele>242.5</ele>
        <time>2024-05-21T12:24:00</time>
      </trkpt>
      <trkpt lat="45.74058" lon="4.94983">
        <ele>242.5</ele>
        <time>2024-05-21T12:24:06</time>
      </trkpt>
      <trkpt lat="45.7406" lon="4.94998">
        <ele>242.4</ele>
        <time>2024-05-21T12:24:12</time>
      </trkpt>
      <trkpt lat="45.74055" lon="4.95015">
        <ele>242.4</ele>
        <time>2024-05-21T12:24:18</time>
      </trkpt>
      <trkpt lat="45.74053" lon="4.95032">
        <ele>242.3</ele>
        <time>2024-05-21T12:24:24</time>
      </trkpt>
      <trkpt lat="45.74049" lon="4.95046">
        <ele>242.3</ele>
        <time>2024-05-21T12:24:30</time>
      </trkpt>
      <trkpt lat="45.74044" lon="4.95064">
        <ele>242.2</ele>
        <time>2024-05-21T12:24:36</time>
      </trkpt>
      <trkpt lat="45.74041" lon="4.95081">
        <ele>242.1</ele>
        <time>2024-05-21T12:24:42</time>
      </trkpt>
      <trkpt lat="45.74038" lon="4.95099">
        <ele>242</ele>
        <time>2024-05-21T12:24:48</time>
      </trkpt>
      <trkpt lat="45.74035" lon="4.95116">
        <ele>241.9</ele>
        <time>2024-05-21T12:24:54</time>
      </trkpt>
      <trkpt lat="45.7403" lon="4.95133">
        <ele>241.8</ele>
        <time>2024-05-21T12:25:00</time>
      </trkpt>
      <trkpt lat="45.74026" lon="4.95149">
        <ele>241.8</ele>
        <time>2024-05-21T12:25:06</time>
      </trkpt>
      <trkpt lat="45.74024" lon="4.95167">
        <ele>241.7</ele>
        <time>2024-05-21T12:25:12</time>
      </trkpt>
      <trkpt lat="45.74019" lon="4.95184">
        <ele>241.6</ele>
        <time>2024-05-21T12:25:18</time>
      </trkpt>
      <trkpt lat="45.74014" lon="4.95199">
        <ele>241.6</ele>
        <time>2024-05-21T12:25:24</time>
      </trkpt>
      <trkpt lat="45.74011" lon="4.95215">
        <ele>241.5</ele>
        <time>2024-05-21T12:25:30</time>
      </trkpt>
      <trkpt lat="45.74006" lon="4.95232">
        <ele>241.5</ele>
        <time>2024-05-21T12:25:36</time>
      </trkpt>
      <trkpt lat="45.74002" lon="4.95252">
        <ele>241.5</ele>
        <time>2024-05-21T12:25:42</time>
      </trkpt>
      <trkpt lat="45.73997" lon="4.95269">
        <ele>241.5</ele>
        <time>2024-05-21T12:25:48</time>
      </trkpt>
      <trkpt lat="45.73994" lon="4.95286">
        <ele>241.5</ele>
        <time>2024-05-21T12:25:54</time>
      </trkpt>
      <trkpt lat="45.7399" lon="4.95294">
        <ele>241.5</ele>
        <time>2024-05-21T12:26:00</time>
      </trkpt>
      <trkpt lat="45.73992" lon="4.95292">
        <ele>241.6</ele>
        <time>2024-05-21T12:26:06</time>
      </trkpt>
      <trkpt lat="45.73993" lon="4.95294">
        <ele>241.6</ele>
        <time>2024-05-21T12:26:12</time>
      </trkpt>
      <trkpt lat="45.73993" lon="4.95294">
        <ele>241.6</ele>
        <time>2024-05-21T12:26:18</time>
      </trkpt>
      <trkpt lat="45.74004" lon="4.95306">
        <ele>241.6</ele>
        <time>2024-05-21T12:26:24</time>
      </trkpt>
      <trkpt lat="45.74015" lon="4.95315">
        <ele>241.6</ele>
        <time>2024-05-21T12:26:30</time>
      </trkpt>
      <trkpt lat="45.74029" lon="4.95327">
        <ele>241.6</ele>
        <time>2024-05-21T12:26:36</time>
      </trkpt>
      <trkpt lat="45.74041" lon="4.95334">
        <ele>241.6</ele>
        <time>2024-05-21T12:26:42</time>
      </trkpt>
      <trkpt lat="45.74053" lon="4.95339">
        <ele>241.5</ele>
        <time>2024-05-21T12:26:48</time>
      </trkpt>
      <trkpt lat="45.74066" lon="4.95338">
        <ele>241.5</ele>
        <time>2024-05-21T12:26:54</time>
      </trkpt>
      <trkpt lat="45.74079" lon="4.95339">
        <ele>241.5</ele>
        <time>2024-05-21T12:27:00</time>
      </trkpt>
      <trkpt lat="45.74094" lon="4.95343">
        <ele>241.5</ele>
        <time>2024-05-21T12:27:06</time>
      </trkpt>
      <trkpt lat="45.74108" lon="4.95348">
        <ele>241.4</ele>
        <time>2024-05-21T12:27:12</time>
      </trkpt>
      <trkpt lat="45.74121" lon="4.95355">
        <ele>241.4</ele>
        <time>2024-05-21T12:27:18</time>
      </trkpt>
      <trkpt lat="45.74133" lon="4.95364">
        <ele>241.4</ele>
        <time>2024-05-21T12:27:24</time>
      </trkpt>
      <trkpt lat="45.74143" lon="4.95373">
        <ele>241.3</ele>
        <time>2024-05-21T12:27:30</time>
      </trkpt>
      <trkpt lat="45.74156" lon="4.95383">
        <ele>241.3</ele>
        <time>2024-05-21T12:27:36</time>
      </trkpt>
      <trkpt lat="45.74168" lon="4.95389">
        <ele>241.3</ele>
        <time>2024-05-21T12:27:42</time>
      </trkpt>
      <trkpt lat="45.74181" lon="4.95397">
        <ele>241.3</ele>
        <time>2024-05-21T12:27:48</time>
      </trkpt>
      <trkpt lat="45.74194" lon="4.95404">
        <ele>241.2</ele>
        <time>2024-05-21T12:27:54</time>
      </trkpt>
      <trkpt lat="45.74206" lon="4.95408">
        <ele>241.2</ele>
        <time>2024-05-21T12:28:00</time>
      </trkpt>
      <trkpt lat="45.74218" lon="4.9541">
        <ele>241.3</ele>
        <time>2024-05-21T12:28:06</time>
      </trkpt>
      <trkpt lat="45.74232" lon="4.9541">
        <ele>241.3</ele>
        <time>2024-05-21T12:28:12</time>
      </trkpt>
      <trkpt lat="45.74245" lon="4.95409">
        <ele>241.4</ele>
        <time>2024-05-21T12:28:18</time>
      </trkpt>
      <trkpt lat="45.74258" lon="4.95408">
        <ele>241.5</ele>
        <time>2024-05-21T12:28:24</time>
      </trkpt>
      <trkpt lat="45.7427" lon="4.95406">
        <ele>241.6</ele>
        <time>2024-05-21T12:28:30</time>
      </trkpt>
      <trkpt lat="45.74282" lon="4.95403">
        <ele>241.7</ele>
        <time>2024-05-21T12:28:36</time>
      </trkpt>
      <trkpt lat="45.74295" lon="4.95402">
        <ele>241.8</ele>
        <time>2024-05-21T12:28:42</time>
      </trkpt>
      <trkpt lat="45.74308" lon="4.95402">
        <ele>242</ele>
        <time>2024-05-21T12:28:48</time>
      </trkpt>
      <trkpt lat="45.74321" lon="4.95403">
        <ele>242.1</ele>
        <time>2024-05-21T12:28:54</time>
      </trkpt>
      <trkpt lat="45.74333" lon="4.95406">
        <ele>242.3</ele>
        <time>2024-05-21T12:29:00</time>
      </trkpt>
      <trkpt lat="45.74345" lon="4.95411">
        <ele>242.5</ele>
        <time>2024-05-21T12:29:06</time>
      </trkpt>
      <trkpt lat="45.74358" lon="4.95417">
        <ele>242.7</ele>
        <time>2024-05-21T12:29:12</time>
      </trkpt>
      <trkpt lat="45.74369" lon="4.95422">
        <ele>242.9</ele>
        <time>2024-05-21T12:29:18</time>
      </trkpt>
      <trkpt lat="45.7438" lon="4.95428">
        <ele>243</ele>
        <time>2024-05-21T12:29:24</time>
      </trkpt>
      <trkpt lat="45.74393" lon="4.95434">
        <ele>243.2</ele>
        <time>2024-05-21T12:29:30</time>
      </trkpt>
      <trkpt lat="45.74405" lon="4.9544">
        <ele>243.4</ele>
        <time>2024-05-21T12:29:36</time>
      </trkpt>
      <trkpt lat="45.74418" lon="4.95445">
        <ele>243.6</ele>
        <time>2024-05-21T12:29:42</time>
      </trkpt>
      <trkpt lat="45.74429" lon="4.9545">
        <ele>243.8</ele>
        <time>2024-05-21T12:29:48</time>
      </trkpt>
      <trkpt lat="45.74441" lon="4.95452">
        <ele>243.9</ele>
        <time>2024-05-21T12:29:54</time>
      </trkpt>
      <trkpt lat="45.74454" lon="4.95455">
        <ele>244</ele>
        <time>2024-05-21T12:30:00</time>
      </trkpt>
      <trkpt lat="45.74466" lon="4.95458">
        <ele>244.2</ele>
        <time>2024-05-21T12:30:06</time>
      </trkpt>
      <trkpt lat="45.74478" lon="4.9546">
        <ele>244.3</ele>
        <time>2024-05-21T12:30:12</time>
      </trkpt>
      <trkpt lat="45.74491" lon="4.95461">
        <ele>244.4</ele>
        <time>2024-05-21T12:30:18</time>
      </trkpt>
      <trkpt lat="45.74503" lon="4.95461">
        <ele>244.4</ele>
        <time>2024-05-21T12:30:24</time>
      </trkpt>
      <trkpt lat="45.74515" lon="4.95462">
        <ele>244.4</ele>
        <time>2024-05-21T12:30:30</time>
      </trkpt>
      <trkpt lat="45.74527" lon="4.95462">
        <ele>244.5</ele>
        <time>2024-05-21T12:30:36</time>
      </trkpt>
      <trkpt lat="45.74539" lon="4.95462">
        <ele>244.5</ele>
        <time>2024-05-21T12:30:42</time>
      </trkpt>
      <trkpt lat="45.74551" lon="4.9546">
        <ele>244.4</ele>
        <time>2024-05-21T12:30:48</time>
      </trkpt>
      <trkpt lat="45.74565" lon="4.9546">
        <ele>244.4</ele>
        <time>2024-05-21T12:30:54</time>
      </trkpt>
      <trkpt lat="45.7457" lon="4.95451">
        <ele>244.4</ele>
        <time>2024-05-21T12:31:00</time>
      </trkpt>
      <trkpt lat="45.74568" lon="4.95432">
        <ele>244.3</ele>
        <time>2024-05-21T12:31:06</time>
      </trkpt>
      <trkpt lat="45.74567" lon="4.95412">
        <ele>244.2</ele>
        <time>2024-05-21T12:31:12</time>
      </trkpt>
      <trkpt lat="45.74565" lon="4.95396">
        <ele>244.2</ele>
        <time>2024-05-21T12:31:18</time>
      </trkpt>
      <trkpt lat="45.74564" lon="4.95377">
        <ele>244.1</ele>
        <time>2024-05-21T12:31:24</time>
      </trkpt>
      <trkpt lat="45.74563" lon="4.9536">
        <ele>244</ele>
        <time>2024-05-21T12:31:30</time>
      </trkpt>
      <trkpt lat="45.74561" lon="4.95342">
        <ele>243.9</ele>
        <time>2024-05-21T12:31:36</time>
      </trkpt>
      <trkpt lat="45.7456" lon="4.95325">
        <ele>243.9</ele>
        <time>2024-05-21T12:31:42</time>
      </trkpt>
      <trkpt lat="45.74559" lon="4.95308">
        <ele>243.8</ele>
        <time>2024-05-21T12:31:48</time>
      </trkpt>
      <trkpt lat="45.74559" lon="4.95291">
        <ele>243.7</ele>
        <time>2024-05-21T12:31:54</time>
      </trkpt>
      <trkpt lat="45.74556" lon="4.95273">
        <ele>243.7</ele>
        <time>2024-05-21T12:32:00</time>
      </trkpt>
      <trkpt lat="45.74555" lon="4.95254">
        <ele>243.6</ele>
        <time>2024-05-21T12:32:06</time>
      </trkpt>
      <trkpt lat="45.74554" lon="4.95236">
        <ele>243.6</ele>
        <time>2024-05-21T12:32:12</time>
      </trkpt>
      <trkpt lat="45.74554" lon="4.95218">
        <ele>243.5</ele>
        <time>2024-05-21T12:32:18</time>
      </trkpt>
      <trkpt lat="45.74552" lon="4.952">
        <ele>243.5</ele>
        <time>2024-05-21T12:32:24</time>
      </trkpt>
      <trkpt lat="45.74551" lon="4.95182">
        <ele>243.4</ele>
        <time>2024-05-21T12:32:30</time>
      </trkpt>
      <trkpt lat="45.7455" lon="4.95164">
        <ele>243.4</ele>
        <time>2024-05-21T12:32:36</time>
      </trkpt>
      <trkpt lat="45.7455" lon="4.95146">
        <ele>243.3</ele>
        <time>2024-05-21T12:32:42</time>
      </trkpt>
      <trkpt lat="45.7455" lon="4.95127">
        <ele>243.3</ele>
        <time>2024-05-21T12:32:48</time>
      </trkpt>
      <trkpt lat="45.7455" lon="4.95109">
        <ele>243.2</ele>
        <time>2024-05-21T12:32:54</time>
      </trkpt>
      <trkpt lat="45.74549" lon="4.95091">
        <ele>243.2</ele>
        <time>2024-05-21T12:33:00</time>
      </trkpt>
      <trkpt lat="45.7455" lon="4.95073">
        <ele>243.1</ele>
        <time>2024-05-21T12:33:06</time>
      </trkpt>
      <trkpt lat="45.7455" lon="4.95055">
        <ele>243</ele>
        <time>2024-05-21T12:33:12</time>
      </trkpt>
      <trkpt lat="45.7455" lon="4.95037">
        <ele>242.9</ele>
        <time>2024-05-21T12:33:18</time>
      </trkpt>
      <trkpt lat="45.74551" lon="4.9502">
        <ele>242.8</ele>
        <time>2024-05-21T12:33:24</time>
      </trkpt>
      <trkpt lat="45.74551" lon="4.95003">
        <ele>242.7</ele>
        <time>2024-05-21T12:33:30</time>
      </trkpt>
      <trkpt lat="45.7455" lon="4.94985">
        <ele>242.5</ele>
        <time>2024-05-21T12:33:36</time>
      </trkpt>
      <trkpt lat="45.74549" lon="4.94966">
        <ele>242.4</ele>
        <time>2024-05-21T12:33:42</time>
      </trkpt>
      <trkpt lat="45.74549" lon="4.94946">
        <ele>242.2</ele>
        <time>2024-05-21T12:33:48</time>
      </trkpt>
      <trkpt lat="45.74549" lon="4.94929">
        <ele>242</ele>
        <time>2024-05-21T12:33:54</time>
      </trkpt>
      <trkpt lat="45.74549" lon="4.94911">
        <ele>241.9</ele>
        <time>2024-05-21T12:34:00</time>
      </trkpt>
      <trkpt lat="45.74549" lon="4.94895">
        <ele>241.7</ele>
        <time>2024-05-21T12:34:06</time>
      </trkpt>
      <trkpt lat="45.74549" lon="4.94878">
        <ele>241.5</ele>
        <time>2024-05-21T12:34:12</time>
      </trkpt>
      <trkpt lat="45.74551" lon="4.9486">
        <ele>241.4</ele>
        <time>2024-05-21T12:34:18</time>
      </trkpt>
      <trkpt lat="45.74553" lon="4.94842">
        <ele>241.2</ele>
        <time>2024-05-21T12:34:24</time>
      </trkpt>
      <trkpt lat="45.74554" lon="4.94824">
        <ele>241.1</ele>
        <time>2024-05-21T12:34:30</time>
      </trkpt>
      <trkpt lat="45.74555" lon="4.94807">
        <ele>241</ele>
        <time>2024-05-21T12:34:36</time>
      </trkpt>
      <trkpt lat="45.74557" lon="4.94791">
        <ele>240.8</ele>
        <time>2024-05-21T12:34:42</time>
      </trkpt>
      <trkpt lat="45.74558" lon="4.94774">
        <ele>240.7</ele>
        <time>2024-05-21T12:34:48</time>
      </trkpt>
      <trkpt lat="45.74558" lon="4.94756">
        <ele>240.6</ele>
        <time>2024-05-21T12:34:54</time>
      </trkpt>
      <trkpt lat="45.74559" lon="4.94738">
        <ele>240.5</ele>
        <time>2024-05-21T12:35:00</time>
      </trkpt>
      <trkpt lat="45.7456" lon="4.94721">
        <ele>240.4</ele>
        <time>2024-05-21T12:35:06</time>
      </trkpt>
      <trkpt lat="45.74558" lon="4.94703">
        <ele>240.3</ele>
        <time>2024-05-21T12:35:12</time>
      </trkpt>
      <trkpt lat="45.74556" lon="4.94686">
        <ele>240.2</ele>
        <time>2024-05-21T12:35:18</time>
      </trkpt>
      <trkpt lat="45.74551" lon="4.94673">
        <ele>240.2</ele>
        <time>2024-05-21T12:35:24</time>
      </trkpt>
      <trkpt lat="45.74551" lon="4.94653">
        <ele>240.1</ele>
        <time>2024-05-21T12:35:30</time>
      </trkpt>
      <trkpt lat="45.74549" lon="4.94635">
        <ele>240</ele>
        <time>2024-05-21T12:35:36</time>
      </trkpt>
      <trkpt lat="45.74547" lon="4.94617">
        <ele>239.9</ele>
        <time>2024-05-21T12:35:42</time>
      </trkpt>
      <trkpt lat="45.74545" lon="4.94598">
        <ele>239.9</ele>
        <time>2024-05-21T12:35:48</time>
      </trkpt>
      <trkpt lat="45.74549" lon="4.94584">
        <ele>239.8</ele>
        <time>2024-05-21T12:35:54</time>
      </trkpt>
      <trkpt lat="45.74561" lon="4.94585">
        <ele>239.8</ele>
        <time>2024-05-21T12:36:00</time>
      </trkpt>
      <trkpt lat="45.74574" lon="4.94588">
        <ele>239.7</ele>
        <time>2024-05-21T12:36:06</time>
      </trkpt>
      <trkpt lat="45.74587" lon="4.94589">
        <ele>239.7</ele>
        <time>2024-05-21T12:36:12</time>
      </trkpt>
      <trkpt lat="45.74598" lon="4.94589">
        <ele>239.6</ele>
        <time>2024-05-21T12:36:18</time>
      </trkpt>
      <trkpt lat="45.74611" lon="4.94589">
        <ele>239.5</ele>
        <time>2024-05-21T12:36:24</time>
      </trkpt>
      <trkpt lat="45.74624" lon="4.94591">
        <ele>239.5</ele>
        <time>2024-05-21T12:36:30</time>
      </trkpt>
      <trkpt lat="45.74637" lon="4.94591">
        <ele>239.4</ele>
        <time>2024-05-21T12:36:36</time>
      </trkpt>
      <trkpt lat="45.7465" lon="4.94593">
        <ele>239.3</ele>
        <time>2024-05-21T12:36:42</time>
      </trkpt>
      <trkpt lat="45.74662" lon="4.94594">
        <ele>239.2</ele>
        <time>2024-05-21T12:36:48</time>
      </trkpt>
      <trkpt lat="45.74672" lon="4.94594">
        <ele>239.2</ele>
        <time>2024-05-21T12:36:54</time>
      </trkpt>
      <trkpt lat="45.74683" lon="4.94593">
        <ele>239.1</ele>
        <time>2024-05-21T12:37:00</time>
      </trkpt>
      <trkpt lat="45.74693" lon="4.94596">
        <ele>239</ele>
        <time>2024-05-21T12:37:06</time>
      </trkpt>
      <trkpt lat="45.74703" lon="4.94597">
        <ele>238.9</ele>
        <time>2024-05-21T12:37:12</time>
      </trkpt>
      <trkpt lat="45.74714" lon="4.94596">
        <ele>238.8</ele>
        <time>2024-05-21T12:37:18</time>
      </trkpt>
      <trkpt lat="45.74725" lon="4.94595">
        <ele>238.7</ele>
        <time>2024-05-21T12:37:24</time>
      </trkpt>
      <trkpt lat="45.74734" lon="4.94598">
        <ele>238.7</ele>
        <time>2024-05-21T12:37:30</time>
      </trkpt>
      <trkpt lat="45.74743" lon="4.946">
        <ele>238.6</ele>
        <time>2024-05-21T12:37:36</time>
      </trkpt>
      <trkpt lat="45.74755" lon="4.94602">
        <ele>238.6</ele>
        <time>2024-05-21T12:37:42</time>
      </trkpt>
      <trkpt lat="45.74766" lon="4.94603">
        <ele>238.6</ele>
        <time>2024-05-21T12:37:48</time>
      </trkpt>
      <trkpt lat="45.74777" lon="4.94605">
        <ele>238.6</ele>
        <time>2024-05-21T12:37:54</time>
      </trkpt>
      <trkpt lat="45.74788" lon="4.94605">
        <ele>238.6</ele>
        <time>2024-05-21T12:38:00</time>
      </trkpt>
      <trkpt lat="45.74799" lon="4.94606">
        <ele>238.6</ele>
        <time>2024-05-21T12:38:06</time>
      </trkpt>
      <trkpt lat="45.74813" lon="4.94608">
        <ele>238.6</ele>
        <time>2024-05-21T12:38:12</time>
      </trkpt>
      <trkpt lat="45.74824" lon="4.9461">
        <ele>238.6</ele>
        <time>2024-05-21T12:38:18</time>
      </trkpt>
      <trkpt lat="45.74835" lon="4.94611">
        <ele>238.7</ele>
        <time>2024-05-21T12:38:24</time>
      </trkpt>
      <trkpt lat="45.74845" lon="4.94612">
        <ele>238.7</ele>
        <time>2024-05-21T12:38:30</time>
      </trkpt>
      <trkpt lat="45.74857" lon="4.94615">
        <ele>238.7</ele>
        <time>2024-05-21T12:38:36</time>
      </trkpt>
      <trkpt lat="45.74867" lon="4.94617">
        <ele>238.8</ele>
        <time>2024-05-21T12:38:42</time>
      </trkpt>
      <trkpt lat="45.74876" lon="4.94621">
        <ele>238.9</ele>
        <time>2024-05-21T12:38:48</time>
      </trkpt>
      <trkpt lat="45.74888" lon="4.94618">
        <ele>238.9</ele>
        <time>2024-05-21T12:38:54</time>
      </trkpt>
      <trkpt lat="45.749" lon="4.94617">
        <ele>239</ele>
        <time>2024-05-21T12:39:00</time>
      </trkpt>
      <trkpt lat="45.74912" lon="4.94612">
        <ele>239.1</ele>
        <time>2024-05-21T12:39:06</time>
      </trkpt>
      <trkpt lat="45.74923" lon="4.94606">
        <ele>239.2</ele>
        <time>2024-05-21T12:39:12</time>
      </trkpt>
      <trkpt lat="45.74925" lon="4.9459">
        <ele>239.3</ele>
        <time>2024-05-21T12:39:18</time>
      </trkpt>
      <trkpt lat="45.74921" lon="4.94573">
        <ele>239.4</ele>
        <time>2024-05-21T12:39:24</time>
      </trkpt>
      <trkpt lat="45.74919" lon="4.94557">
        <ele>239.5</ele>
        <time>2024-05-21T12:39:30</time>
      </trkpt>
      <trkpt lat="45.74918" lon="4.94539">
        <ele>239.6</ele>
        <time>2024-05-21T12:39:36</time>
      </trkpt>
      <trkpt lat="45.74928" lon="4.94533">
        <ele>239.6</ele>
        <time>2024-05-21T12:39:42</time>
      </trkpt>
      <trkpt lat="45.74935" lon="4.94545">
        <ele>239.6</ele>
        <time>2024-05-21T12:39:48</time>
      </trkpt>
      <trkpt lat="45.74936" lon="4.94561">
        <ele>239.6</ele>
        <time>2024-05-21T12:39:54</time>
      </trkpt>
      <trkpt lat="45.74939" lon="4.94576">
        <ele>239.6</ele>
        <time>2024-05-21T12:40:00</time>
      </trkpt>
      <trkpt lat="45.74933" lon="4.94587">
        <ele>239.6</ele>
        <time>2024-05-21T12:40:06</time>
      </trkpt>
      <trkpt lat="45.74928" lon="4.94599">
        <ele>239.5</ele>
        <time>2024-05-21T12:40:12</time>
      </trkpt>
      <trkpt lat="45.74923" lon="4.94587">
        <ele>239.4</ele>
        <time>2024-05-21T12:40:18</time>
      </trkpt>
      <trkpt lat="45.74925" lon="4.94572">
        <ele>239.3</ele>
        <time>2024-05-21T12:40:24</time>
      </trkpt>
      <trkpt lat="45.74935" lon="4.9457">
        <ele>239.2</ele>
        <time>2024-05-21T12:40:30</time>
      </trkpt>
      <trkpt lat="45.74943" lon="4.94582">
        <ele>239</ele>
        <time>2024-05-21T12:40:36</time>
      </trkpt>
      <trkpt lat="45.74956" lon="4.94582">
        <ele>238.9</ele>
        <time>2024-05-21T12:40:42</time>
      </trkpt>
      <trkpt lat="45.74971" lon="4.94577">
        <ele>238.8</ele>
        <time>2024-05-21T12:40:48</time>
      </trkpt>
      <trkpt lat="45.74982" lon="4.9457">
        <ele>238.6</ele>
        <time>2024-05-21T12:40:54</time>
      </trkpt>
      <trkpt lat="45.74994" lon="4.94567">
        <ele>238.5</ele>
        <time>2024-05-21T12:41:00</time>
      </trkpt>
      <trkpt lat="45.75006" lon="4.94564">
        <ele>238.4</ele>
        <time>2024-05-21T12:41:06</time>
      </trkpt>
      <trkpt lat="45.75019" lon="4.94559">
        <ele>238.4</ele>
        <time>2024-05-21T12:41:12</time>
      </trkpt>
      <trkpt lat="45.75031" lon="4.94555">
        <ele>238.3</ele>
        <time>2024-05-21T12:41:18</time>
      </trkpt>
      <trkpt lat="45.75044" lon="4.94549">
        <ele>238.3</ele>
        <time>2024-05-21T12:41:24</time>
      </trkpt>
      <trkpt lat="45.75056" lon="4.94545">
        <ele>238.3</ele>
        <time>2024-05-21T12:41:30</time>
      </trkpt>
      <trkpt lat="45.75069" lon="4.94541">
        <ele>238.3</ele>
        <time>2024-05-21T12:41:36</time>
      </trkpt>
      <trkpt lat="45.75082" lon="4.94538">
        <ele>238.3</ele>
        <time>2024-05-21T12:41:42</time>
      </trkpt>
      <trkpt lat="45.75094" lon="4.94532">
        <ele>238.3</ele>
        <time>2024-05-21T12:41:48</time>
      </trkpt>
      <trkpt lat="45.75107" lon="4.94527">
        <ele>238.3</ele>
        <time>2024-05-21T12:41:54</time>
      </trkpt>
      <trkpt lat="45.75119" lon="4.94525">
        <ele>238.3</ele>
        <time>2024-05-21T12:42:00</time>
      </trkpt>
      <trkpt lat="45.75131" lon="4.94522">
        <ele>238.4</ele>
        <time>2024-05-21T12:42:06</time>
      </trkpt>
      <trkpt lat="45.75143" lon="4.94515">
        <ele>238.5</ele>
        <time>2024-05-21T12:42:12</time>
      </trkpt>
      <trkpt lat="45.75155" lon="4.9451">
        <ele>238.6</ele>
        <time>2024-05-21T12:42:18</time>
      </trkpt>
      <trkpt lat="45.75167" lon="4.94505">
        <ele>238.7</ele>
        <time>2024-05-21T12:42:24</time>
      </trkpt>
      <trkpt lat="45.7518" lon="4.94499">
        <ele>238.9</ele>
        <time>2024-05-21T12:42:30</time>
      </trkpt>
      <trkpt lat="45.75192" lon="4.94494">
        <ele>239</ele>
        <time>2024-05-21T12:42:36</time>
      </trkpt>
      <trkpt lat="45.75204" lon="4.94489">
        <ele>239.2</ele>
        <time>2024-05-21T12:42:42</time>
      </trkpt>
      <trkpt lat="45.75216" lon="4.94485">
        <ele>239.5</ele>
        <time>2024-05-21T12:42:48</time>
      </trkpt>
      <trkpt lat="45.75228" lon="4.9448">
        <ele>239.7</ele>
        <time>2024-05-21T12:42:54</time>
      </trkpt>
      <trkpt lat="45.7524" lon="4.94476">
        <ele>239.9</ele>
        <time>2024-05-21T12:43:00</time>
      </trkpt>
      <trkpt lat="45.75252" lon="4.94472">
        <ele>240.2</ele>
        <time>2024-05-21T12:43:06</time>
      </trkpt>
      <trkpt lat="45.75265" lon="4.94468">
        <ele>240.5</ele>
        <time>2024-05-21T12:43:12</time>
      </trkpt>
      <trkpt lat="45.75277" lon="4.94461">
        <ele>240.7</ele>
        <time>2024-05-21T12:43:18</time>
      </trkpt>
      <trkpt lat="45.75288" lon="4.94455">
        <ele>241</ele>
        <time>2024-05-21T12:43:24</time>
      </trkpt>
      <trkpt lat="45.75287" lon="4.9444">
        <ele>241.2</ele>
        <time>2024-05-21T12:43:30</time>
      </trkpt>
      <trkpt lat="45.75281" lon="4.94422">
        <ele>241.4</ele>
        <time>2024-05-21T12:43:36</time>
      </trkpt>
      <trkpt lat="45.75275" lon="4.94407">
        <ele>241.6</ele>
        <time>2024-05-21T12:43:42</time>
      </trkpt>
      <trkpt lat="45.75268" lon="4.9439">
        <ele>241.8</ele>
        <time>2024-05-21T12:43:48</time>
      </trkpt>
      <trkpt lat="45.75261" lon="4.94374">
        <ele>242</ele>
        <time>2024-05-21T12:43:54</time>
      </trkpt>
      <trkpt lat="45.75254" lon="4.9436">
        <ele>242.2</ele>
        <time>2024-05-21T12:44:00</time>
      </trkpt>
      <trkpt lat="45.75246" lon="4.94345">
        <ele>242.4</ele>
        <time>2024-05-21T12:44:06</time>
      </trkpt>
      <trkpt lat="45.7524" lon="4.9433">
        <ele>242.6</ele>
        <time>2024-05-21T12:44:12</time>
      </trkpt>
      <trkpt lat="45.75233" lon="4.94315">
        <ele>242.7</ele>
        <time>2024-05-21T12:44:18</time>
      </trkpt>
      <trkpt lat="45.75225" lon="4.94301">
        <ele>242.9</ele>
        <time>2024-05-21T12:44:24</time>
      </trkpt>
      <trkpt lat="45.75219" lon="4.94286">
        <ele>243</ele>
        <time>2024-05-21T12:44:30</time>
      </trkpt>
      <trkpt lat="45.75213" lon="4.94272">
        <ele>243.1</ele>
        <time>2024-05-21T12:44:36</time>
      </trkpt>
      <trkpt lat="45.75206" lon="4.94258">
        <ele>243.2</ele>
        <time>2024-05-21T12:44:42</time>
      </trkpt>
      <trkpt lat="45.75198" lon="4.94245">
        <ele>243.3</ele>
        <time>2024-05-21T12:44:48</time>
      </trkpt>
      <trkpt lat="45.75188" lon="4.94234">
        <ele>243.4</ele>
        <time>2024-05-21T12:44:54</time>
      </trkpt>
      <trkpt lat="45.75179" lon="4.94225">
        <ele>243.5</ele>
        <time>2024-05-21T12:45:00</time>
      </trkpt>
      <trkpt lat="45.7517" lon="4.94215">
        <ele>243.6</ele>
        <time>2024-05-21T12:45:06</time>
      </trkpt>
      <trkpt lat="45.75161" lon="4.94205">
        <ele>243.6</ele>
        <time>2024-05-21T12:45:12</time>
      </trkpt>
      <trkpt lat="45.75152" lon="4.94193">
        <ele>243.6</ele>
        <time>2024-05-21T12:45:18</time>
      </trkpt>
      <trkpt lat="45.75137" lon="4.94186">
        <ele>243.7</ele>
        <time>2024-05-21T12:45:24</time>
      </trkpt>
      <trkpt lat="45.75122" lon="4.94202">
        <ele>243.7</ele>
        <time>2024-05-21T12:45:30</time>
      </trkpt>
      <trkpt lat="45.7511" lon="4.94218">
        <ele>243.7</ele>
        <time>2024-05-21T12:45:36</time>
      </trkpt>
      <trkpt lat="45.75097" lon="4.94234">
        <ele>243.6</ele>
        <time>2024-05-21T12:45:42</time>
      </trkpt>
      <trkpt lat="45.75084" lon="4.94251">
        <ele>243.6</ele>
        <time>2024-05-21T12:45:48</time>
      </trkpt>
      <trkpt lat="45.75074" lon="4.94268">
        <ele>243.5</ele>
        <time>2024-05-21T12:45:54</time>
      </trkpt>
      <trkpt lat="45.75063" lon="4.94285">
        <ele>243.4</ele>
        <time>2024-05-21T12:46:00</time>
      </trkpt>
      <trkpt lat="45.75051" lon="4.943">
        <ele>243.4</ele>
        <time>2024-05-21T12:46:06</time>
      </trkpt>
      <trkpt lat="45.75036" lon="4.94311">
        <ele>243.3</ele>
        <time>2024-05-21T12:46:12</time>
      </trkpt>
      <trkpt lat="45.75023" lon="4.94321">
        <ele>243.2</ele>
        <time>2024-05-21T12:46:18</time>
      </trkpt>
      <trkpt lat="45.75008" lon="4.94328">
        <ele>243.1</ele>
        <time>2024-05-21T12:46:24</time>
      </trkpt>
      <trkpt lat="45.74992" lon="4.9433">
        <ele>243</ele>
        <time>2024-05-21T12:46:30</time>
      </trkpt>
      <trkpt lat="45.74976" lon="4.94327">
        <ele>242.9</ele>
        <time>2024-05-21T12:46:36</time>
      </trkpt>
      <trkpt lat="45.74961" lon="4.9432">
        <ele>242.8</ele>
        <time>2024-05-21T12:46:42</time>
      </trkpt>
      <trkpt lat="45.74945" lon="4.94309">
        <ele>242.7</ele>
        <time>2024-05-21T12:46:48</time>
      </trkpt>
      <trkpt lat="45.7493" lon="4.94296">
        <ele>242.6</ele>
        <time>2024-05-21T12:46:54</time>
      </trkpt>
      <trkpt lat="45.74913" lon="4.94285">
        <ele>242.6</ele>
        <time>2024-05-21T12:47:00</time>
      </trkpt>
      <trkpt lat="45.74902" lon="4.94268">
        <ele>242.5</ele>
        <time>2024-05-21T12:47:06</time>
      </trkpt>
      <trkpt lat="45.74892" lon="4.94247">
        <ele>242.5</ele>
        <time>2024-05-21T12:47:12</time>
      </trkpt>
      <trkpt lat="45.74881" lon="4.94228">
        <ele>242.5</ele>
        <time>2024-05-21T12:47:18</time>
      </trkpt>
      <trkpt lat="45.74874" lon="4.94203">
        <ele>242.4</ele>
        <time>2024-05-21T12:47:24</time>
      </trkpt>
      <trkpt lat="45.74864" lon="4.94183">
        <ele>242.4</ele>
        <time>2024-05-21T12:47:30</time>
      </trkpt>
      <trkpt lat="45.74852" lon="4.94166">
        <ele>242.4</ele>
        <time>2024-05-21T12:47:36</time>
      </trkpt>
      <trkpt lat="45.74841" lon="4.9415">
        <ele>242.4</ele>
        <time>2024-05-21T12:47:42</time>
      </trkpt>
      <trkpt lat="45.74829" lon="4.9413">
        <ele>242.4</ele>
        <time>2024-05-21T12:47:48</time>
      </trkpt>
      <trkpt lat="45.74815" lon="4.94111">
        <ele>242.4</ele>
        <time>2024-05-21T12:47:54</time>
      </trkpt>
      <trkpt lat="45.74803" lon="4.94092">
        <ele>242.5</ele>
        <time>2024-05-21T12:48:00</time>
      </trkpt>
      <trkpt lat="45.74793" lon="4.94072">
        <ele>242.6</ele>
        <time>2024-05-21T12:48:06</time>
      </trkpt>
      <trkpt lat="45.7478" lon="4.94052">
        <ele>242.7</ele>
        <time>2024-05-21T12:48:12</time>
      </trkpt>
      <trkpt lat="45.74772" lon="4.94032">
        <ele>242.8</ele>
        <time>2024-05-21T12:48:18</time>
      </trkpt>
      <trkpt lat="45.74777" lon="4.94008">
        <ele>242.9</ele>
        <time>2024-05-21T12:48:24</time>
      </trkpt>
      <trkpt lat="45.74788" lon="4.93988">
        <ele>243.1</ele>
        <time>2024-05-21T12:48:30</time>
      </trkpt>
      <trkpt lat="45.748" lon="4.9397">
        <ele>243.3</ele>
        <time>2024-05-21T12:48:36</time>
      </trkpt>
      <trkpt lat="45.74813" lon="4.93951">
        <ele>243.5</ele>
        <time>2024-05-21T12:48:42</time>
      </trkpt>
      <trkpt lat="45.74826" lon="4.93933">
        <ele>243.6</ele>
        <time>2024-05-21T12:48:48</time>
      </trkpt>
      <trkpt lat="45.74839" lon="4.93912">
        <ele>243.8</ele>
        <time>2024-05-21T12:48:54</time>
      </trkpt>
      <trkpt lat="45.74851" lon="4.93895">
        <ele>243.9</ele>
        <time>2024-05-21T12:49:00</time>
      </trkpt>
      <trkpt lat="45.74864" lon="4.93876">
        <ele>244</ele>
        <time>2024-05-21T12:49:06</time>
      </trkpt>
      <trkpt lat="45.74866" lon="4.9385">
        <ele>244.1</ele>
        <time>2024-05-21T12:49:12</time>
      </trkpt>
      <trkpt lat="45.74854" lon="4.93832">
        <ele>244.2</ele>
        <time>2024-05-21T12:49:18</time>
      </trkpt>
      <trkpt lat="45.74842" lon="4.93815">
        <ele>244.3</ele>
        <time>2024-05-21T12:49:24</time>
      </trkpt>
      <trkpt lat="45.74826" lon="4.93798">
        <ele>244.3</ele>
        <time>2024-05-21T12:49:30</time>
      </trkpt>
      <trkpt lat="45.74812" lon="4.93782">
        <ele>244.3</ele>
        <time>2024-05-21T12:49:36</time>
      </trkpt>
      <trkpt lat="45.74798" lon="4.93768">
        <ele>244.3</ele>
        <time>2024-05-21T12:49:42</time>
      </trkpt>
      <trkpt lat="45.74785" lon="4.93752">
        <ele>244.4</ele>
        <time>2024-05-21T12:49:48</time>
      </trkpt>
      <trkpt lat="45.74771" lon="4.93734">
        <ele>244.4</ele>
        <time>2024-05-21T12:49:54</time>
      </trkpt>
      <trkpt lat="45.74757" lon="4.93711">
        <ele>244.4</ele>
        <time>2024-05-21T12:50:00</time>
      </trkpt>
      <trkpt lat="45.74743" lon="4.93693">
        <ele>244.4</ele>
        <time>2024-05-21T12:50:06</time>
      </trkpt>
      <trkpt lat="45.74728" lon="4.93676">
        <ele>244.4</ele>
        <time>2024-05-21T12:50:12</time>
      </trkpt>
      <trkpt lat="45.74711" lon="4.9367">
        <ele>244.4</ele>
        <time>2024-05-21T12:50:18</time>
      </trkpt>
      <trkpt lat="45.74692" lon="4.93672">
        <ele>244.4</ele>
        <time>2024-05-21T12:50:24</time>
      </trkpt>
      <trkpt lat="45.74675" lon="4.93679">
        <ele>244.4</ele>
        <time>2024-05-21T12:50:30</time>
      </trkpt>
      <trkpt lat="45.74673" lon="4.93706">
        <ele>244.4</ele>
        <time>2024-05-21T12:50:36</time>
      </trkpt>
      <trkpt lat="45.74671" lon="4.93736">
        <ele>244.4</ele>
        <time>2024-05-21T12:50:42</time>
      </trkpt>
      <trkpt lat="45.7467" lon="4.93766">
        <ele>244.4</ele>
        <time>2024-05-21T12:50:48</time>
      </trkpt>
      <trkpt lat="45.74669" lon="4.93797">
        <ele>244.4</ele>
        <time>2024-05-21T12:50:54</time>
      </trkpt>
      <trkpt lat="45.74666" lon="4.93829">
        <ele>244.4</ele>
        <time>2024-05-21T12:51:00</time>
      </trkpt>
      <trkpt lat="45.74664" lon="4.93862">
        <ele>244.4</ele>
        <time>2024-05-21T12:51:06</time>
      </trkpt>
      <trkpt lat="45.7466" lon="4.93875">
        <ele>244.4</ele>
        <time>2024-05-21T12:51:12</time>
      </trkpt>
    </trkseg>
  </trk>
</gpx>